sensor_id;sensor_type;location;lat;lon;timestamp;temperature;humidity
13835;DHT22;6988;52.614;13.500;2024-02-28T00:02:52;4.70;99.90
13835;DHT22;6988;52.614;13.500;2024-02-28T00:07:44;4.60;99.90
13835;DHT22;6988;52.614;13.500;2024-02-28T00:12:38;4.60;99.90
13835;DHT22;6988;52.614;13.500;2024-02-28T00:17:30;4.60;99.90
13835;DHT22;6988;52.614;13.500;2024-02-28T00:22:23;4.60;99.90
13835;DHT22;6988;52.614;13.500;2024-02-28T00:27:15;4.60;99.90
13835;DHT22;6988;52.614;13.500;2024-02-28T00:32:07;4.60;99.90
13835;DHT22;6988;52.614;13.500;2024-02-28T00:36:59;4.60;99.90
13835;DHT22;6988;52.614;13.500;2024-02-28T00:41:53;4.60;99.90
13835;DHT22;6988;52.614;13.500;2024-02-28T00:46:45;4.60;99.90
13835;DHT22;6988;52.614;13.500;2024-02-28T00:51:37;4.50;99.90
13835;DHT22;6988;52.614;13.500;2024-02-28T00:56:29;4.60;99.90
13835;DHT22;6988;52.614;13.500;2024-02-28T01:01:24;4.60;99.90
13835;DHT22;6988;52.614;13.500;2024-02-28T01:06:16;4.60;99.90
13835;DHT22;6988;52.614;13.500;2024-02-28T01:11:08;4.50;99.90
13835;DHT22;6988;52.614;13.500;2024-02-28T01:16:00;4.60;99.90
13835;DHT22;6988;52.614;13.500;2024-02-28T01:20:53;4.50;99.90
13835;DHT22;6988;52.614;13.500;2024-02-28T01:25:45;4.50;99.90
13835;DHT22;6988;52.614;13.500;2024-02-28T01:30:37;4.50;99.90
13835;DHT22;6988;52.614;13.500;2024-02-28T01:35:29;4.50;99.90
13835;DHT22;6988;52.614;13.500;2024-02-28T01:40:24;4.50;99.90
13835;DHT22;6988;52.614;13.500;2024-02-28T01:45:16;4.50;99.90
13835;DHT22;6988;52.614;13.500;2024-02-28T01:50:09;4.50;99.90
13835;DHT22;6988;52.614;13.500;2024-02-28T01:55:02;4.50;99.90
13835;DHT22;6988;52.614;13.500;2024-02-28T01:59:58;4.40;99.90
13835;DHT22;6988;52.614;13.500;2024-02-28T02:04:55;4.50;99.90
13835;DHT22;6988;52.614;13.500;2024-02-28T02:09:48;4.50;99.90
13835;DHT22;6988;52.614;13.500;2024-02-28T02:14:40;4.50;99.90
13835;DHT22;6988;52.614;13.500;2024-02-28T02:19:34;4.50;99.90
13835;DHT22;6988;52.614;13.500;2024-02-28T02:24:27;4.50;99.90
13835;DHT22;6988;52.614;13.500;2024-02-28T02:29:19;4.50;99.90
13835;DHT22;6988;52.614;13.500;2024-02-28T02:34:11;4.50;99.90
13835;DHT22;6988;52.614;13.500;2024-02-28T02:39:03;4.50;99.90
13835;DHT22;6988;52.614;13.500;2024-02-28T02:43:56;4.50;99.90
13835;DHT22;6988;52.614;13.500;2024-02-28T02:48:49;4.40;99.90
13835;DHT22;6988;52.614;13.500;2024-02-28T02:53:42;4.40;99.90
13835;DHT22;6988;52.614;13.500;2024-02-28T02:58:34;4.40;99.90
13835;DHT22;6988;52.614;13.500;2024-02-28T03:03:28;4.40;99.90
13835;DHT22;6988;52.614;13.500;2024-02-28T03:08:19;4.40;99.90
13835;DHT22;6988;52.614;13.500;2024-02-28T03:13:11;4.40;99.90
13835;DHT22;6988;52.614;13.500;2024-02-28T03:18:04;4.50;99.90
13835;DHT22;6988;52.614;13.500;2024-02-28T03:22:58;4.40;99.90
13835;DHT22;6988;52.614;13.500;2024-02-28T03:27:50;4.40;99.90
13835;DHT22;6988;52.614;13.500;2024-02-28T03:32:43;4.40;99.90
13835;DHT22;6988;52.614;13.500;2024-02-28T03:37:35;4.30;99.90
13835;DHT22;6988;52.614;13.500;2024-02-28T03:42:28;4.30;99.90
13835;DHT22;6988;52.614;13.500;2024-02-28T03:47:21;4.30;99.90
13835;DHT22;6988;52.614;13.500;2024-02-28T03:52:13;4.30;99.90
13835;DHT22;6988;52.614;13.500;2024-02-28T03:57:05;4.30;99.90
13835;DHT22;6988;52.614;13.500;2024-02-28T04:01:58;4.30;99.90
13835;DHT22;6988;52.614;13.500;2024-02-28T04:06:50;4.20;99.90
13835;DHT22;6988;52.614;13.500;2024-02-28T04:11:43;4.30;99.90
13835;DHT22;6988;52.614;13.500;2024-02-28T04:16:41;4.20;99.90
13835;DHT22;6988;52.614;13.500;2024-02-28T04:21:35;4.30;99.90
13835;DHT22;6988;52.614;13.500;2024-02-28T04:26:27;4.20;99.90
13835;DHT22;6988;52.614;13.500;2024-02-28T04:31:20;4.20;99.90
13835;DHT22;6988;52.614;13.500;2024-02-28T04:36:12;4.20;99.90
13835;DHT22;6988;52.614;13.500;2024-02-28T04:41:06;4.20;99.90
13835;DHT22;6988;52.614;13.500;2024-02-28T04:45:58;4.20;99.90
13835;DHT22;6988;52.614;13.500;2024-02-28T04:50:51;4.20;99.90
13835;DHT22;6988;52.614;13.500;2024-02-28T04:55:43;4.20;99.90
13835;DHT22;6988;52.614;13.500;2024-02-28T05:00:37;4.30;99.90
13835;DHT22;6988;52.614;13.500;2024-02-28T05:05:29;4.20;99.90
13835;DHT22;6988;52.614;13.500;2024-02-28T05:10:21;4.20;99.90
13835;DHT22;6988;52.614;13.500;2024-02-28T05:15:13;4.20;99.90
13835;DHT22;6988;52.614;13.500;2024-02-28T05:20:08;4.20;99.90
13835;DHT22;6988;52.614;13.500;2024-02-28T05:25:00;4.20;99.90
13835;DHT22;6988;52.614;13.500;2024-02-28T05:29:52;4.20;99.90
13835;DHT22;6988;52.614;13.500;2024-02-28T05:34:45;4.20;99.90
13835;DHT22;6988;52.614;13.500;2024-02-28T05:39:39;4.20;99.90
13835;DHT22;6988;52.614;13.500;2024-02-28T05:44:31;4.20;99.90
13835;DHT22;6988;52.614;13.500;2024-02-28T05:49:23;4.20;99.90
13835;DHT22;6988;52.614;13.500;2024-02-28T05:54:15;4.20;99.90
13835;DHT22;6988;52.614;13.500;2024-02-28T05:59:08;4.20;99.90
13835;DHT22;6988;52.614;13.500;2024-02-28T06:04:00;4.20;99.90
13835;DHT22;6988;52.614;13.500;2024-02-28T06:08:53;4.20;99.90
13835;DHT22;6988;52.614;13.500;2024-02-28T06:13:46;4.10;99.90
13835;DHT22;6988;52.614;13.500;2024-02-28T06:18:41;4.10;99.90
13835;DHT22;6988;52.614;13.500;2024-02-28T06:23:33;4.10;99.90
13835;DHT22;6988;52.614;13.500;2024-02-28T06:28:25;4.20;99.90
13835;DHT22;6988;52.614;13.500;2024-02-28T06:33:17;4.20;99.90
13835;DHT22;6988;52.614;13.500;2024-02-28T06:38:10;4.20;99.90
13835;DHT22;6988;52.614;13.500;2024-02-28T06:43:02;4.20;99.90
13835;DHT22;6988;52.614;13.500;2024-02-28T06:47:55;4.20;99.90
13835;DHT22;6988;52.614;13.500;2024-02-28T06:52:47;4.20;99.90
13835;DHT22;6988;52.614;13.500;2024-02-28T06:57:41;4.20;99.90
13835;DHT22;6988;52.614;13.500;2024-02-28T07:02:37;4.20;99.90
13835;DHT22;6988;52.614;13.500;2024-02-28T07:07:29;4.20;99.90
13835;DHT22;6988;52.614;13.500;2024-02-28T07:12:21;4.20;99.90
13835;DHT22;6988;52.614;13.500;2024-02-28T07:17:14;4.20;99.90
13835;DHT22;6988;52.614;13.500;2024-02-28T07:22:06;4.20;99.90
13835;DHT22;6988;52.614;13.500;2024-02-28T07:26:58;4.20;99.90
13835;DHT22;6988;52.614;13.500;2024-02-28T07:31:50;4.20;99.90
13835;DHT22;6988;52.614;13.500;2024-02-28T07:36:43;4.20;99.90
13835;DHT22;6988;52.614;13.500;2024-02-28T07:41:35;4.20;99.90
13835;DHT22;6988;52.614;13.500;2024-02-28T07:46:28;4.20;99.90
13835;DHT22;6988;52.614;13.500;2024-02-28T07:51:20;4.20;99.90
13835;DHT22;6988;52.614;13.500;2024-02-28T07:56:17;4.20;99.90
13835;DHT22;6988;52.614;13.500;2024-02-28T08:01:09;4.10;99.90
13835;DHT22;6988;52.614;13.500;2024-02-28T08:06:01;4.10;99.90
13835;DHT22;6988;52.614;13.500;2024-02-28T08:10:53;4.10;99.90
13835;DHT22;6988;52.614;13.500;2024-02-28T08:15:46;4.10;99.90
13835;DHT22;6988;52.614;13.500;2024-02-28T08:20:38;4.10;99.90
13835;DHT22;6988;52.614;13.500;2024-02-28T08:25:31;4.10;99.90
13835;DHT22;6988;52.614;13.500;2024-02-28T08:30:22;4.10;99.90
13835;DHT22;6988;52.614;13.500;2024-02-28T08:35:17;4.10;99.90
13835;DHT22;6988;52.614;13.500;2024-02-28T08:40:10;4.00;99.90
13835;DHT22;6988;52.614;13.500;2024-02-28T08:45:03;4.00;99.90
13835;DHT22;6988;52.614;13.500;2024-02-28T08:49:57;3.90;99.90
13835;DHT22;6988;52.614;13.500;2024-02-28T08:54:50;3.90;99.90
13835;DHT22;6988;52.614;13.500;2024-02-28T08:59:44;3.90;99.90
13835;DHT22;6988;52.614;13.500;2024-02-28T09:04:36;3.80;99.90
13835;DHT22;6988;52.614;13.500;2024-02-28T09:09:28;3.80;99.90
13835;DHT22;6988;52.614;13.500;2024-02-28T09:14:24;3.80;99.90
13835;DHT22;6988;52.614;13.500;2024-02-28T09:19:15;3.80;99.90
13835;DHT22;6988;52.614;13.500;2024-02-28T09:24:07;3.90;99.90
13835;DHT22;6988;52.614;13.500;2024-02-28T09:28:59;4.00;99.90
13835;DHT22;6988;52.614;13.500;2024-02-28T09:33:53;4.00;99.90
13835;DHT22;6988;52.614;13.500;2024-02-28T09:38:44;4.00;99.90
13835;DHT22;6988;52.614;13.500;2024-02-28T09:43:40;4.00;99.90
13835;DHT22;6988;52.614;13.500;2024-02-28T09:48:32;4.00;99.90
13835;DHT22;6988;52.614;13.500;2024-02-28T09:53:26;4.10;99.90
13835;DHT22;6988;52.614;13.500;2024-02-28T09:58:19;4.00;99.90
13835;DHT22;6988;52.614;13.500;2024-02-28T10:03:14;4.00;99.90
13835;DHT22;6988;52.614;13.500;2024-02-28T10:08:08;4.00;99.90
13835;DHT22;6988;52.614;13.500;2024-02-28T10:13:02;3.90;99.90
13835;DHT22;6988;52.614;13.500;2024-02-28T10:17:54;3.90;99.90
13835;DHT22;6988;52.614;13.500;2024-02-28T10:22:46;3.90;99.90
13835;DHT22;6988;52.614;13.500;2024-02-28T10:27:37;3.80;99.90
13835;DHT22;6988;52.614;13.500;2024-02-28T10:32:31;3.80;99.90
13835;DHT22;6988;52.614;13.500;2024-02-28T10:37:24;3.90;99.90
13835;DHT22;6988;52.614;13.500;2024-02-28T10:42:16;3.80;99.90
13835;DHT22;6988;52.614;13.500;2024-02-28T10:47:08;3.90;99.90
13835;DHT22;6988;52.614;13.500;2024-02-28T10:52:03;3.90;99.90
13835;DHT22;6988;52.614;13.500;2024-02-28T10:56:57;3.90;99.90
13835;DHT22;6988;52.614;13.500;2024-02-28T11:01:51;4.00;99.90
13835;DHT22;6988;52.614;13.500;2024-02-28T11:06:50;4.00;99.90
13835;DHT22;6988;52.614;13.500;2024-02-28T11:11:44;4.00;99.90
13835;DHT22;6988;52.614;13.500;2024-02-28T11:16:36;4.10;99.90
13835;DHT22;6988;52.614;13.500;2024-02-28T11:21:28;4.10;99.90
13835;DHT22;6988;52.614;13.500;2024-02-28T11:26:20;4.10;99.90
13835;DHT22;6988;52.614;13.500;2024-02-28T11:31:14;4.10;99.90
13835;DHT22;6988;52.614;13.500;2024-02-28T11:36:07;4.20;99.90
13835;DHT22;6988;52.614;13.500;2024-02-28T11:40:59;4.20;99.90
13835;DHT22;6988;52.614;13.500;2024-02-28T11:45:51;4.20;99.90
13835;DHT22;6988;52.614;13.500;2024-02-28T11:50:46;4.20;99.90
13835;DHT22;6988;52.614;13.500;2024-02-28T11:55:38;4.30;99.90
13835;DHT22;6988;52.614;13.500;2024-02-28T12:00:32;4.40;99.90
13835;DHT22;6988;52.614;13.500;2024-02-28T12:05:23;4.40;99.90
13835;DHT22;6988;52.614;13.500;2024-02-28T12:10:17;4.50;99.90
13835;DHT22;6988;52.614;13.500;2024-02-28T12:15:10;4.50;99.90
13835;DHT22;6988;52.614;13.500;2024-02-28T12:20:02;4.50;99.90
13835;DHT22;6988;52.614;13.500;2024-02-28T12:24:54;4.40;99.90
13835;DHT22;6988;52.614;13.500;2024-02-28T12:29:47;4.40;99.90
13835;DHT22;6988;52.614;13.500;2024-02-28T12:34:40;4.40;99.90
13835;DHT22;6988;52.614;13.500;2024-02-28T12:39:32;4.40;99.90
13835;DHT22;6988;52.614;13.500;2024-02-28T12:44:24;4.40;99.90
13835;DHT22;6988;52.614;13.500;2024-02-28T12:49:18;4.40;99.90
13835;DHT22;6988;52.614;13.500;2024-02-28T12:54:10;4.40;99.90
13835;DHT22;6988;52.614;13.500;2024-02-28T12:59:03;4.50;99.90
13835;DHT22;6988;52.614;13.500;2024-02-28T13:03:56;4.60;99.90
13835;DHT22;6988;52.614;13.500;2024-02-28T13:08:50;4.70;99.90
13835;DHT22;6988;52.614;13.500;2024-02-28T13:13:43;4.80;99.90
13835;DHT22;6988;52.614;13.500;2024-02-28T13:18:35;4.90;99.90
13835;DHT22;6988;52.614;13.500;2024-02-28T13:23:27;5.00;99.90
13835;DHT22;6988;52.614;13.500;2024-02-28T13:28:22;5.00;99.90
13835;DHT22;6988;52.614;13.500;2024-02-28T13:33:20;5.00;99.90
13835;DHT22;6988;52.614;13.500;2024-02-28T13:38:12;5.10;99.90
13835;DHT22;6988;52.614;13.500;2024-02-28T13:43:04;5.20;99.90
13835;DHT22;6988;52.614;13.500;2024-02-28T13:47:57;5.40;99.90
13835;DHT22;6988;52.614;13.500;2024-02-28T13:52:49;5.40;99.90
13835;DHT22;6988;52.614;13.500;2024-02-28T13:57:41;5.30;99.90
13835;DHT22;6988;52.614;13.500;2024-02-28T14:02:33;5.30;99.90
13835;DHT22;6988;52.614;13.500;2024-02-28T14:07:27;5.30;99.90
13835;DHT22;6988;52.614;13.500;2024-02-28T14:12:19;5.30;99.90
13835;DHT22;6988;52.614;13.500;2024-02-28T14:17:11;5.30;99.90
13835;DHT22;6988;52.614;13.500;2024-02-28T14:22:04;5.30;99.90
13835;DHT22;6988;52.614;13.500;2024-02-28T14:26:58;5.30;99.90
13835;DHT22;6988;52.614;13.500;2024-02-28T14:31:50;5.30;99.90
13835;DHT22;6988;52.614;13.500;2024-02-28T14:36:42;5.30;99.90
13835;DHT22;6988;52.614;13.500;2024-02-28T14:41:34;5.20;99.90
13835;DHT22;6988;52.614;13.500;2024-02-28T14:46:27;5.50;99.90
13835;DHT22;6988;52.614;13.500;2024-02-28T14:51:19;5.60;99.90
13835;DHT22;6988;52.614;13.500;2024-02-28T14:56:12;5.50;99.90
13835;DHT22;6988;52.614;13.500;2024-02-28T15:01:07;5.50;99.90
13835;DHT22;6988;52.614;13.500;2024-02-28T15:06:02;5.90;99.90
13835;DHT22;6988;52.614;13.500;2024-02-28T15:10:56;6.10;99.90
13835;DHT22;6988;52.614;13.500;2024-02-28T15:15:48;6.20;99.90
13835;DHT22;6988;52.614;13.500;2024-02-28T15:20:40;6.10;99.90
13835;DHT22;6988;52.614;13.500;2024-02-28T15:25:33;6.20;99.90
13835;DHT22;6988;52.614;13.500;2024-02-28T15:30:26;6.10;99.90
13835;DHT22;6988;52.614;13.500;2024-02-28T15:35:18;6.30;99.90
13835;DHT22;6988;52.614;13.500;2024-02-28T15:40:11;6.30;99.90
13835;DHT22;6988;52.614;13.500;2024-02-28T15:45:05;6.40;99.90
13835;DHT22;6988;52.614;13.500;2024-02-28T15:49:59;6.50;99.90
13835;DHT22;6988;52.614;13.500;2024-02-28T15:54:51;6.40;99.90
13835;DHT22;6988;52.614;13.500;2024-02-28T15:59:43;6.30;99.90
13835;DHT22;6988;52.614;13.500;2024-02-28T16:04:37;6.10;99.90
13835;DHT22;6988;52.614;13.500;2024-02-28T16:09:29;6.00;99.90
13835;DHT22;6988;52.614;13.500;2024-02-28T16:14:21;5.80;99.90
13835;DHT22;6988;52.614;13.500;2024-02-28T16:19:13;5.70;99.90
13835;DHT22;6988;52.614;13.500;2024-02-28T16:24:06;5.50;99.90
13835;DHT22;6988;52.614;13.500;2024-02-28T16:28:58;5.30;99.90
13835;DHT22;6988;52.614;13.500;2024-02-28T16:33:50;5.20;99.90
13835;DHT22;6988;52.614;13.500;2024-02-28T16:38:42;5.00;99.90
13835;DHT22;6988;52.614;13.500;2024-02-28T16:43:36;4.90;99.90
13835;DHT22;6988;52.614;13.500;2024-02-28T16:48:28;4.70;99.90
13835;DHT22;6988;52.614;13.500;2024-02-28T16:53:21;4.50;99.90
13835;DHT22;6988;52.614;13.500;2024-02-28T16:58:13;4.30;99.90
13835;DHT22;6988;52.614;13.500;2024-02-28T17:03:06;4.20;99.90
13835;DHT22;6988;52.614;13.500;2024-02-28T17:07:58;4.10;99.90
13835;DHT22;6988;52.614;13.500;2024-02-28T17:12:50;3.90;99.90
13835;DHT22;6988;52.614;13.500;2024-02-28T17:17:42;3.70;99.90
13835;DHT22;6988;52.614;13.500;2024-02-28T17:22:36;3.60;99.90
13835;DHT22;6988;52.614;13.500;2024-02-28T17:27:27;3.50;99.90
13835;DHT22;6988;52.614;13.500;2024-02-28T17:32:20;3.40;99.90
13835;DHT22;6988;52.614;13.500;2024-02-28T17:37:12;3.30;99.90
13835;DHT22;6988;52.614;13.500;2024-02-28T17:42:07;3.20;99.90
13835;DHT22;6988;52.614;13.500;2024-02-28T17:46:59;3.10;99.90
13835;DHT22;6988;52.614;13.500;2024-02-28T17:51:51;3.00;99.90
13835;DHT22;6988;52.614;13.500;2024-02-28T17:56:44;2.90;99.90
13835;DHT22;6988;52.614;13.500;2024-02-28T18:01:38;2.80;99.90
13835;DHT22;6988;52.614;13.500;2024-02-28T18:06:30;2.70;99.90
13835;DHT22;6988;52.614;13.500;2024-02-28T18:11:26;2.60;99.90
13835;DHT22;6988;52.614;13.500;2024-02-28T18:21:11;2.50;99.90
13835;DHT22;6988;52.614;13.500;2024-02-28T18:26:03;2.40;99.90
13835;DHT22;6988;52.614;13.500;2024-02-28T18:30:55;2.20;99.90
13835;DHT22;6988;52.614;13.500;2024-02-28T18:35:47;2.10;99.90
13835;DHT22;6988;52.614;13.500;2024-02-28T18:40:40;2.20;99.90
13835;DHT22;6988;52.614;13.500;2024-02-28T18:45:32;1.90;99.90
13835;DHT22;6988;52.614;13.500;2024-02-28T18:50:25;1.70;99.90
13835;DHT22;6988;52.614;13.500;2024-02-28T18:55:19;1.60;99.90
13835;DHT22;6988;52.614;13.500;2024-02-28T19:00:17;1.60;99.90
13835;DHT22;6988;52.614;13.500;2024-02-28T19:05:11;1.50;99.90
13835;DHT22;6988;52.614;13.500;2024-02-28T19:10:05;1.50;99.90
13835;DHT22;6988;52.614;13.500;2024-02-28T19:14:58;1.50;99.90
13835;DHT22;6988;52.614;13.500;2024-02-28T19:19:52;1.40;99.90
13835;DHT22;6988;52.614;13.500;2024-02-28T19:24:47;1.40;99.90
13835;DHT22;6988;52.614;13.500;2024-02-28T19:29:39;1.30;99.90
13835;DHT22;6988;52.614;13.500;2024-02-28T19:34:31;1.20;99.90
13835;DHT22;6988;52.614;13.500;2024-02-28T19:39:25;1.10;99.90
13835;DHT22;6988;52.614;13.500;2024-02-28T19:44:17;1.00;99.90
13835;DHT22;6988;52.614;13.500;2024-02-28T19:49:09;1.10;99.90
13835;DHT22;6988;52.614;13.500;2024-02-28T19:54:02;1.00;99.90
13835;DHT22;6988;52.614;13.500;2024-02-28T19:58:55;0.90;99.90
13835;DHT22;6988;52.614;13.500;2024-02-28T20:03:47;0.90;99.90
13835;DHT22;6988;52.614;13.500;2024-02-28T20:08:39;0.70;99.90
13835;DHT22;6988;52.614;13.500;2024-02-28T20:13:31;0.80;99.90
13835;DHT22;6988;52.614;13.500;2024-02-28T20:18:25;0.80;99.90
13835;DHT22;6988;52.614;13.500;2024-02-28T20:23:17;0.80;99.90
13835;DHT22;6988;52.614;13.500;2024-02-28T20:28:08;0.70;99.90
13835;DHT22;6988;52.614;13.500;2024-02-28T20:33:01;0.70;99.90
13835;DHT22;6988;52.614;13.500;2024-02-28T20:37:56;0.50;99.90
13835;DHT22;6988;52.614;13.500;2024-02-28T20:42:48;0.50;99.90
13835;DHT22;6988;52.614;13.500;2024-02-28T20:47:40;0.30;99.90
13835;DHT22;6988;52.614;13.500;2024-02-28T20:52:32;0.30;99.90
13835;DHT22;6988;52.614;13.500;2024-02-28T20:57:25;0.30;99.90
13835;DHT22;6988;52.614;13.500;2024-02-28T21:02:17;0.20;99.90
13835;DHT22;6988;52.614;13.500;2024-02-28T21:07:09;0.10;99.90
13835;DHT22;6988;52.614;13.500;2024-02-28T21:12:04;0.20;99.90
13835;DHT22;6988;52.614;13.500;2024-02-28T21:16:58;0.20;99.90
13835;DHT22;6988;52.614;13.500;2024-02-28T21:21:50;0.00;99.90
13835;DHT22;6988;52.614;13.500;2024-02-28T21:26:42;0.10;99.90
13835;DHT22;6988;52.614;13.500;2024-02-28T21:31:34;0.10;99.90
13835;DHT22;6988;52.614;13.500;2024-02-28T21:36:28;0.00;99.90
13835;DHT22;6988;52.614;13.500;2024-02-28T21:41:21;0.00;99.90
13835;DHT22;6988;52.614;13.500;2024-02-28T21:46:13;0.00;99.90
13835;DHT22;6988;52.614;13.500;2024-02-28T21:51:05;0.00;99.90
13835;DHT22;6988;52.614;13.500;2024-02-28T21:55:59;-0.10;99.90
13835;DHT22;6988;52.614;13.500;2024-02-28T22:00:51;-0.10;99.90
13835;DHT22;6988;52.614;13.500;2024-02-28T22:05:43;-0.20;99.90
13835;DHT22;6988;52.614;13.500;2024-02-28T22:10:35;-0.20;99.90
13835;DHT22;6988;52.614;13.500;2024-02-28T22:15:28;-0.20;99.90
13835;DHT22;6988;52.614;13.500;2024-02-28T22:20:20;-0.20;99.90
13835;DHT22;6988;52.614;13.500;2024-02-28T22:25:12;-0.10;99.90
13835;DHT22;6988;52.614;13.500;2024-02-28T22:30:06;-0.20;99.90
13835;DHT22;6988;52.614;13.500;2024-02-28T22:34:59;-0.20;99.90
13835;DHT22;6988;52.614;13.500;2024-02-28T22:39:51;-0.30;99.90
13835;DHT22;6988;52.614;13.500;2024-02-28T22:44:43;-0.30;99.90
13835;DHT22;6988;52.614;13.500;2024-02-28T23:04:25;-0.50;99.90
13835;DHT22;6988;52.614;13.500;2024-02-28T23:09:17;-0.40;99.90
13835;DHT22;6988;52.614;13.500;2024-02-28T23:14:09;-0.40;99.90
13835;DHT22;6988;52.614;13.500;2024-02-28T23:19:02;-0.50;99.90
13835;DHT22;6988;52.614;13.500;2024-02-28T23:23:55;-0.40;99.90
13835;DHT22;6988;52.614;13.500;2024-02-28T23:28:48;-0.50;99.90
13835;DHT22;6988;52.614;13.500;2024-02-28T23:33:40;-0.40;99.90
13835;DHT22;6988;52.614;13.500;2024-02-28T23:38:32;-0.60;99.90
13835;DHT22;6988;52.614;13.500;2024-02-28T23:43:25;-0.60;99.90
13835;DHT22;6988;52.614;13.500;2024-02-28T23:48:17;-0.70;99.90
13835;DHT22;6988;52.614;13.500;2024-02-28T23:53:08;-0.70;99.90
13835;DHT22;6988;52.614;13.500;2024-02-28T23:58:01;-0.70;99.90
